createdAt,value
2023-06-21T00:01:05.158Z,11.93
2023-06-21T00:03:32.093Z,13.85
2023-06-21T00:05:58.883Z,12.23
2023-06-21T00:08:26.237Z,12.52
2023-06-21T00:10:54.036Z,12.37
2023-06-21T00:13:21.008Z,12.53
2023-06-21T00:15:48.071Z,12.77
2023-06-21T00:18:15.008Z,13.93
2023-06-21T00:20:41.804Z,13.63
2023-06-21T00:23:09.881Z,15.50
2023-06-21T00:25:39.174Z,13.65
2023-06-21T00:28:06.425Z,14.07
2023-06-21T00:30:33.510Z,14.45
2023-06-21T00:33:01.676Z,14.40
2023-06-21T00:35:28.859Z,13.70
2023-06-21T00:37:56.902Z,14.18
2023-06-21T00:40:34.740Z,14.30
2023-06-21T00:43:03.203Z,14.70
2023-06-21T00:45:30.373Z,14.67
2023-06-21T00:49:47.420Z,14.88
2023-06-21T00:52:15.249Z,13.57
2023-06-21T00:54:43.164Z,15.17
2023-06-21T00:57:13.053Z,15.85
2023-06-21T00:59:40.052Z,15.97
2023-06-21T01:02:07.163Z,15.43
2023-06-21T01:04:35.352Z,16.40
2023-06-21T01:07:28.746Z,17.17
2023-06-21T01:10:23.024Z,16.73
2023-06-21T01:12:49.924Z,15.97
2023-06-21T01:15:18.909Z,18.60
2023-06-21T01:17:52.409Z,15.77
2023-06-21T01:20:26.004Z,16.97
2023-06-21T01:22:53.605Z,17.65
2023-06-21T01:25:57.768Z,17.60
2023-06-21T01:28:32.242Z,18.83
2023-06-21T01:31:00.873Z,18.40
2023-06-21T01:33:29.498Z,18.33
2023-06-21T01:35:57.651Z,20.93
2023-06-21T01:38:25.563Z,20.57
2023-06-21T01:40:52.579Z,20.37
2023-06-21T01:43:20.196Z,18.07
2023-06-21T01:45:47.736Z,21.37
2023-06-21T01:48:15.886Z,23.53
2023-06-21T01:50:44.019Z,19.20
2023-06-21T01:53:15.158Z,18.30
2023-06-21T01:55:49.332Z,18.40
2023-06-21T01:58:17.267Z,18.83
2023-06-21T02:00:45.179Z,19.08
2023-06-21T02:03:16.166Z,19.48
2023-06-21T02:05:44.415Z,18.60
2023-06-21T02:08:17.415Z,19.00
2023-06-21T02:10:48.327Z,19.70
2023-06-21T02:13:15.798Z,19.23
2023-06-21T02:15:42.918Z,18.33
2023-06-21T02:18:13.721Z,17.37
2023-06-21T02:20:40.779Z,17.80
2023-06-21T02:23:08.184Z,17.53
2023-06-21T02:25:36.755Z,17.00
2023-06-21T02:28:04.668Z,17.07
2023-06-21T02:30:31.660Z,17.37
2023-06-21T02:32:58.553Z,17.30
2023-06-21T02:35:25.808Z,17.90
2023-06-21T02:37:52.862Z,16.80
2023-06-21T02:40:20.256Z,17.43
2023-06-21T02:42:47.072Z,18.93
2023-06-21T02:45:13.964Z,18.83
2023-06-21T02:47:40.702Z,19.07
2023-06-21T02:50:09.095Z,19.90
2023-06-21T02:52:36.002Z,19.87
2023-06-21T02:55:08.472Z,20.47
2023-06-21T02:57:35.691Z,21.00
2023-06-21T03:00:02.561Z,22.67
2023-06-21T03:02:35.181Z,21.93
2023-06-21T03:05:02.528Z,22.43
2023-06-21T03:07:29.321Z,22.90
2023-06-21T03:09:56.663Z,22.60
2023-06-21T03:12:23.445Z,22.47
2023-06-21T03:14:50.254Z,25.37
2023-06-21T03:17:17.246Z,21.17
2023-06-21T03:19:44.084Z,22.90
2023-06-21T03:22:10.962Z,22.07
2023-06-21T03:24:38.079Z,22.97
2023-06-21T03:27:05.437Z,23.53
2023-06-21T03:29:34.047Z,25.27
2023-06-21T03:32:01.029Z,25.90
2023-06-21T03:34:27.816Z,24.03
2023-06-21T03:36:54.720Z,24.73
2023-06-21T03:39:21.703Z,24.10
2023-06-21T03:41:48.638Z,24.33
2023-06-21T03:44:15.491Z,23.10
2023-06-21T03:46:42.421Z,22.23
2023-06-21T03:49:09.433Z,23.67
2023-06-21T03:51:36.507Z,27.10
2023-06-21T03:54:03.986Z,22.13
2023-06-21T03:56:30.804Z,26.87
2023-06-21T03:58:57.574Z,25.97
2023-06-21T04:01:25.559Z,22.03
2023-06-21T04:03:52.497Z,22.10
2023-06-21T04:06:19.338Z,19.77
2023-06-21T04:08:46.277Z,18.80
2023-06-21T04:11:13.029Z,21.07
2023-06-21T04:13:39.902Z,20.58
2023-06-21T04:16:06.932Z,23.50
2023-06-21T04:18:33.844Z,18.20
2023-06-21T04:21:00.578Z,20.08
2023-06-21T04:23:27.601Z,17.77
2023-06-21T04:25:54.448Z,17.30
2023-06-21T04:28:26.585Z,18.90
2023-06-21T04:30:53.854Z,17.73
2023-06-21T04:33:20.681Z,16.88
2023-06-21T04:35:47.435Z,16.00
2023-06-21T04:38:14.695Z,17.10
2023-06-21T04:40:43.515Z,16.92
2023-06-21T04:43:10.695Z,15.80
2023-06-21T04:45:37.847Z,17.48
2023-06-21T04:48:06.153Z,16.10
2023-06-21T04:50:33.696Z,15.60
2023-06-21T04:53:01.330Z,15.60
2023-06-21T04:55:29.298Z,17.90
2023-06-21T04:57:57.272Z,19.02
2023-06-21T05:00:24.376Z,18.00
2023-06-21T05:02:51.298Z,15.07
2023-06-21T05:05:18.516Z,18.30
2023-06-21T05:07:45.458Z,15.18
2023-06-21T05:10:12.826Z,14.48
2023-06-21T05:12:39.848Z,15.30
2023-06-21T05:15:07.547Z,14.63
2023-06-21T05:17:35.666Z,17.05
2023-06-21T05:20:04.885Z,15.02
2023-06-21T05:22:32.413Z,18.50
2023-06-21T05:24:59.241Z,16.08
2023-06-21T05:27:26.037Z,14.73
2023-06-21T05:29:53.095Z,14.00
2023-06-21T05:32:21.191Z,15.50
2023-06-21T05:34:48.283Z,12.75
2023-06-21T05:37:15.561Z,16.50
2023-06-21T05:39:44.551Z,16.98
2023-06-21T05:42:11.650Z,13.57
2023-06-21T05:44:39.154Z,13.00
2023-06-21T05:47:06.074Z,12.98
2023-06-21T05:49:33.351Z,13.43
2023-06-21T05:52:01.074Z,12.93
2023-06-21T05:54:27.968Z,13.20
2023-06-21T05:56:56.358Z,15.07
2023-06-21T05:59:23.377Z,14.45
2023-06-21T06:01:50.360Z,14.73
2023-06-21T06:04:17.326Z,15.60
2023-06-21T06:06:44.531Z,15.80
2023-06-21T06:09:13.027Z,17.42
2023-06-21T06:11:39.927Z,16.30
2023-06-21T06:14:06.998Z,16.70
2023-06-21T06:16:33.814Z,15.57
2023-06-21T06:19:00.706Z,17.25
2023-06-21T06:21:27.774Z,17.13
2023-06-21T06:23:55.001Z,17.08
2023-06-21T06:26:24.385Z,17.25
2023-06-21T06:28:52.510Z,18.35
2023-06-21T06:31:21.439Z,15.60
2023-06-21T06:33:48.331Z,16.35
2023-06-21T06:36:15.348Z,14.75
2023-06-21T06:38:42.217Z,16.45
2023-06-21T06:41:09.266Z,14.82
2023-06-21T06:43:36.216Z,16.35
2023-06-21T06:46:03.213Z,14.43
2023-06-21T06:48:30.187Z,14.50
2023-06-21T06:50:57.030Z,14.75
2023-06-21T06:53:23.958Z,15.32
2023-06-21T06:55:52.741Z,16.00
2023-06-21T06:58:20.394Z,16.42
2023-06-21T07:00:47.439Z,15.60
2023-06-21T07:03:15.306Z,15.85
2023-06-21T07:05:48.614Z,15.40
2023-06-21T07:08:15.667Z,16.15
2023-06-21T07:10:42.509Z,14.70
2023-06-21T07:13:09.337Z,16.27
2023-06-21T07:15:36.335Z,14.77
2023-06-21T07:18:03.414Z,14.32
2023-06-21T07:20:31.392Z,13.10
2023-06-21T07:22:58.797Z,13.43
2023-06-21T07:25:25.588Z,13.98
2023-06-21T07:27:52.652Z,12.88
2023-06-21T07:30:23.847Z,13.23
2023-06-21T07:32:51.686Z,12.43
2023-06-21T07:35:19.024Z,12.73
2023-06-21T07:37:47.262Z,12.75
2023-06-21T07:40:14.665Z,13.85
2023-06-21T07:42:42.128Z,12.95
2023-06-21T07:45:10.455Z,12.52
2023-06-21T07:47:37.653Z,12.68
2023-06-21T07:52:36.245Z,13.48
2023-06-21T07:55:06.637Z,12.27
2023-06-21T07:57:33.969Z,12.80
2023-06-21T08:00:09.973Z,13.50
2023-06-21T08:02:36.785Z,12.57
2023-06-21T08:05:03.854Z,13.52
2023-06-21T08:07:30.761Z,13.25
2023-06-21T08:09:57.685Z,14.05
2023-06-21T08:12:24.444Z,12.98
2023-06-21T08:14:51.405Z,12.27
2023-06-21T08:17:18.325Z,12.73
2023-06-21T08:19:45.145Z,12.30
2023-06-21T08:22:12.044Z,12.05
2023-06-21T08:24:39.184Z,11.52
2023-06-21T08:27:06.257Z,11.82
2023-06-21T08:29:33.300Z,12.68
2023-06-21T08:32:00.089Z,13.73
2023-06-21T08:34:27.090Z,12.20
2023-06-21T08:36:54.048Z,12.68
2023-06-21T08:39:20.924Z,12.27
2023-06-21T08:41:48.061Z,11.82
2023-06-21T08:44:15.101Z,13.23
2023-06-21T08:46:43.328Z,12.18
2023-06-21T08:49:18.203Z,11.20
2023-06-21T08:51:46.754Z,11.45
2023-06-21T08:54:15.832Z,13.18
2023-06-21T08:56:50.408Z,12.30
2023-06-21T08:59:26.940Z,11.32
2023-06-21T09:02:13.872Z,11.00
2023-06-21T09:04:46.523Z,11.07
2023-06-21T09:07:15.379Z,12.10
2023-06-21T09:09:44.705Z,11.50
2023-06-21T09:12:14.766Z,12.60
2023-06-21T09:14:42.143Z,12.10
2023-06-21T09:17:09.524Z,12.60
2023-06-21T09:19:41.268Z,12.52
2023-06-21T09:22:08.388Z,11.90
2023-06-21T09:24:35.357Z,12.38
2023-06-21T09:27:02.318Z,12.07
2023-06-21T09:29:29.184Z,10.98
2023-06-21T09:31:57.714Z,10.45
2023-06-21T09:34:24.705Z,10.25
2023-06-21T09:36:51.773Z,10.55
2023-06-21T09:39:18.538Z,10.10
2023-06-21T09:41:45.775Z,9.82
2023-06-21T09:44:12.668Z,10.38
2023-06-21T09:46:41.491Z,9.30
2023-06-21T09:49:12.707Z,8.50
2023-06-21T09:51:43.702Z,8.88
2023-06-21T09:54:10.621Z,8.68
2023-06-21T09:56:38.912Z,8.15
2023-06-21T09:59:19.723Z,7.68
2023-06-21T10:01:49.735Z,8.70
2023-06-21T10:04:18.135Z,8.82
2023-06-21T10:06:52.477Z,10.77
2023-06-21T10:09:20.056Z,8.93
2023-06-21T10:11:47.264Z,8.48
2023-06-21T10:14:20.744Z,7.65
2023-06-21T10:16:54.518Z,7.57
2023-06-21T10:19:26.376Z,7.55
2023-06-21T10:22:21.135Z,7.68
2023-06-21T10:24:50.627Z,7.97
2023-06-21T10:27:19.644Z,7.78
2023-06-21T10:29:53.254Z,7.40
2023-06-21T10:32:22.443Z,9.07
2023-06-21T10:35:00.471Z,8.35
2023-06-21T10:37:30.682Z,8.35
2023-06-21T10:40:10.088Z,7.80
2023-06-21T10:42:40.046Z,8.88
2023-06-21T10:45:09.557Z,7.90
2023-06-21T10:47:38.358Z,8.48
2023-06-21T10:50:10.606Z,8.70
2023-06-21T10:52:38.729Z,9.63
2023-06-21T10:55:06.010Z,9.02
2023-06-21T10:57:35.098Z,8.95
2023-06-21T11:00:05.153Z,8.45
2023-06-21T11:02:32.078Z,8.95
2023-06-21T11:05:18.683Z,9.45
2023-06-21T11:07:55.653Z,10.02
2023-06-21T11:10:37.540Z,8.73
2023-06-21T11:13:04.444Z,8.82
2023-06-21T11:15:32.793Z,8.90
2023-06-21T11:18:07.535Z,12.20
2023-06-21T11:20:47.901Z,8.82
2023-06-21T11:23:28.867Z,7.78
2023-06-21T11:26:15.526Z,7.22
2023-06-21T11:28:50.213Z,6.82
2023-06-21T11:31:24.028Z,6.85
2023-06-21T11:33:56.598Z,7.47
2023-06-21T11:36:28.557Z,6.72
2023-06-21T11:39:21.552Z,6.75
2023-06-21T11:41:48.287Z,7.97
2023-06-21T11:44:21.505Z,7.18
2023-06-21T11:46:49.037Z,6.90
2023-06-21T11:49:16.117Z,7.05
2023-06-21T11:52:04.018Z,7.40
2023-06-21T11:54:36.776Z,7.05
2023-06-21T11:57:08.049Z,7.63
2023-06-21T11:59:36.048Z,6.80
2023-06-21T12:02:18.025Z,6.45
2023-06-21T12:04:45.828Z,8.43
2023-06-21T12:07:13.014Z,6.47
2023-06-21T12:09:40.647Z,6.22
2023-06-21T12:12:08.120Z,5.82
2023-06-21T12:14:37.238Z,6.63
2023-06-21T12:17:05.020Z,7.00
2023-06-21T12:19:35.011Z,6.75
2023-06-21T12:22:03.937Z,8.85
2023-06-21T12:24:33.758Z,6.93
2023-06-21T12:27:04.740Z,6.72
2023-06-21T12:29:32.218Z,9.00
2023-06-21T12:31:59.356Z,6.70
2023-06-21T12:34:26.750Z,7.55
2023-06-21T12:36:56.043Z,6.60
2023-06-21T12:39:24.332Z,6.50
2023-06-21T12:41:51.338Z,7.20
2023-06-21T12:44:23.160Z,7.03
2023-06-21T12:46:51.793Z,8.25
2023-06-21T12:49:18.850Z,7.13
2023-06-21T12:51:47.591Z,6.68
2023-06-21T12:54:21.908Z,7.30
2023-06-21T12:56:54.188Z,7.25
2023-06-21T12:59:21.596Z,7.28
2023-06-21T13:01:48.457Z,8.05
2023-06-21T13:04:16.708Z,8.52
2023-06-21T13:06:44.363Z,8.10
2023-06-21T13:09:12.381Z,7.80
2023-06-21T13:11:40.335Z,7.63
2023-06-21T13:14:08.087Z,8.00
2023-06-21T13:16:35.460Z,7.63
2023-06-21T13:19:02.265Z,7.20
2023-06-21T13:21:29.770Z,8.55
2023-06-21T13:24:00.314Z,7.97
2023-06-21T13:26:28.524Z,9.00
2023-06-21T13:28:55.655Z,8.25
2023-06-21T13:31:24.715Z,7.95
2023-06-21T13:33:52.074Z,8.27
2023-06-21T13:36:19.306Z,8.25
2023-06-21T13:38:46.279Z,8.50
2023-06-21T13:41:13.338Z,7.75
2023-06-21T13:43:40.296Z,8.07
2023-06-21T13:46:07.219Z,8.07
2023-06-21T13:48:34.623Z,8.23
2023-06-21T13:51:01.474Z,7.63
2023-06-21T13:53:29.079Z,8.27
2023-06-21T13:55:56.413Z,7.40
2023-06-21T13:58:23.258Z,7.40
2023-06-21T14:00:50.372Z,7.80
2023-06-21T14:03:17.558Z,7.90
2023-06-21T14:05:44.494Z,8.68
2023-06-21T14:08:11.233Z,7.20
2023-06-21T14:10:38.293Z,7.10
2023-06-21T14:13:05.452Z,6.53
2023-06-21T14:15:32.363Z,6.70
2023-06-21T14:18:04.796Z,7.45
2023-06-21T14:20:32.206Z,7.47
2023-06-21T14:22:59.423Z,7.55
2023-06-21T14:25:26.504Z,9.13
2023-06-21T14:27:53.481Z,6.40
2023-06-21T14:30:20.474Z,6.13
2023-06-21T14:32:48.513Z,6.35
2023-06-21T14:35:15.619Z,6.55
2023-06-21T14:37:45.251Z,6.13
2023-06-21T14:40:12.496Z,5.35
2023-06-21T14:42:39.407Z,7.18
2023-06-21T14:45:07.046Z,6.45
2023-06-21T14:47:33.801Z,7.43
2023-06-21T14:50:05.312Z,5.70
2023-06-21T14:52:32.989Z,6.65
2023-06-21T14:54:59.863Z,7.07
2023-06-21T14:57:27.097Z,6.22
2023-06-21T14:59:54.009Z,6.97
2023-06-21T15:02:20.952Z,6.97
2023-06-21T15:04:47.948Z,7.10
2023-06-21T15:07:19.162Z,7.13
2023-06-21T15:09:47.135Z,7.22
2023-06-21T15:12:14.428Z,7.93
2023-06-21T15:17:08.137Z,6.55
2023-06-21T15:19:35.045Z,6.03
2023-06-21T15:22:01.993Z,5.43
2023-06-21T15:24:28.748Z,6.20
2023-06-21T15:26:55.924Z,7.47
2023-06-21T15:29:22.885Z,6.35
2023-06-21T15:31:49.643Z,6.00
2023-06-21T15:34:17.100Z,6.90
2023-06-21T15:36:44.761Z,8.20
2023-06-21T15:39:11.651Z,6.70
2023-06-21T15:41:39.084Z,6.07
2023-06-21T15:44:06.743Z,8.45
2023-06-21T15:46:34.381Z,7.22
2023-06-21T15:49:01.816Z,5.75
2023-06-21T15:51:28.928Z,5.82
2023-06-21T15:53:57.694Z,5.82
2023-06-21T15:56:26.243Z,6.15
2023-06-21T15:58:53.997Z,6.47
2023-06-21T16:01:22.174Z,5.68
2023-06-21T16:03:50.834Z,4.82
2023-06-21T16:06:18.580Z,4.35
2023-06-21T16:08:46.988Z,8.50
2023-06-21T16:11:14.142Z,5.00
2023-06-21T16:13:47.463Z,5.80
2023-06-21T16:16:16.365Z,6.20
2023-06-21T16:18:45.571Z,6.35
2023-06-21T16:21:15.086Z,6.38
2023-06-21T16:23:43.093Z,5.30
2023-06-21T16:26:10.050Z,7.88
2023-06-21T16:28:36.852Z,6.78
2023-06-21T16:31:04.415Z,6.88
2023-06-21T16:33:31.414Z,4.57
2023-06-21T16:35:58.440Z,4.45
2023-06-21T16:38:25.625Z,7.10
2023-06-21T16:40:53.134Z,4.70
2023-06-21T16:43:20.119Z,4.25
2023-06-21T16:45:47.324Z,4.05
2023-06-21T16:48:14.290Z,3.80
2023-06-21T16:50:41.279Z,4.38
2023-06-21T16:53:08.754Z,5.10
2023-06-21T16:55:35.924Z,4.25
2023-06-21T16:58:03.064Z,6.60
2023-06-21T17:00:30.168Z,5.68
2023-06-21T17:02:59.424Z,4.90
2023-06-21T17:05:28.682Z,5.15
2023-06-21T17:07:55.824Z,6.07
2023-06-21T17:10:22.649Z,5.22
2023-06-21T17:12:50.038Z,5.88
2023-06-21T17:15:17.207Z,5.38
2023-06-21T17:17:45.024Z,5.57
2023-06-21T17:20:12.395Z,5.90
2023-06-21T17:22:39.412Z,6.47
2023-06-21T17:25:06.831Z,5.53
2023-06-21T17:27:34.588Z,5.32
2023-06-21T17:30:01.478Z,7.90
2023-06-21T17:32:28.477Z,5.95
2023-06-21T17:34:55.879Z,5.38
2023-06-21T17:37:22.943Z,5.22
2023-06-21T17:39:49.877Z,5.65
2023-06-21T17:42:16.985Z,4.80
2023-06-21T17:44:43.763Z,4.85
2023-06-21T17:47:11.345Z,5.07
2023-06-21T17:49:38.213Z,5.40
2023-06-21T17:52:05.372Z,5.68
2023-06-21T17:54:33.572Z,5.95
2023-06-21T17:57:00.652Z,5.65
2023-06-21T17:59:27.441Z,6.43
2023-06-21T18:01:55.132Z,8.45
2023-06-21T18:04:22.058Z,6.22
2023-06-21T18:06:49.010Z,6.25
2023-06-21T18:09:16.287Z,6.53
2023-06-21T18:11:46.105Z,5.15
2023-06-21T18:14:13.169Z,4.90
2023-06-21T18:16:40.566Z,5.28
2023-06-21T18:19:07.637Z,7.03
2023-06-21T18:21:34.488Z,5.03
2023-06-21T18:24:11.873Z,6.10
2023-06-21T18:26:38.992Z,7.32
2023-06-21T18:29:05.816Z,6.28
2023-06-21T18:31:33.118Z,6.40
2023-06-21T18:34:00.709Z,5.95
2023-06-21T18:36:27.925Z,5.63
2023-06-21T18:38:56.171Z,5.43
2023-06-21T18:41:22.973Z,4.85
2023-06-21T18:43:49.824Z,5.68
2023-06-21T18:46:17.353Z,5.18
2023-06-21T18:48:45.377Z,5.93
2023-06-21T18:51:12.701Z,5.22
2023-06-21T18:53:39.730Z,4.80
2023-06-21T18:56:06.537Z,4.90
2023-06-21T18:58:33.322Z,5.07
2023-06-21T19:01:00.226Z,7.22
2023-06-21T19:03:27.322Z,7.22
2023-06-21T19:05:55.130Z,5.82
2023-06-21T19:08:22.104Z,6.25
2023-06-21T19:10:48.910Z,7.75
2023-06-21T19:13:15.680Z,5.90
2023-06-21T19:15:43.075Z,5.32
2023-06-21T19:18:09.971Z,6.82
2023-06-21T19:20:37.010Z,6.60
2023-06-21T19:23:04.285Z,6.15
2023-06-21T19:25:31.398Z,5.93
2023-06-21T19:27:58.351Z,12.98
2023-06-21T19:30:25.292Z,5.75
2023-06-21T19:32:52.135Z,5.35
2023-06-21T19:35:21.798Z,5.88
2023-06-21T19:37:49.615Z,5.72
2023-06-21T19:40:16.708Z,5.40
2023-06-21T19:42:45.958Z,7.07
2023-06-21T19:45:14.150Z,5.88
2023-06-21T19:47:41.177Z,7.85
2023-06-21T19:50:08.944Z,6.90
2023-06-21T19:52:36.555Z,8.20
2023-06-21T19:55:04.548Z,5.50
2023-06-21T19:57:31.545Z,5.93
2023-06-21T19:59:58.688Z,7.78
2023-06-21T20:02:25.743Z,6.35
2023-06-21T20:04:57.343Z,6.25
2023-06-21T20:07:24.997Z,5.88
2023-06-21T20:09:52.935Z,6.28
2023-06-21T20:12:20.061Z,7.00
2023-06-21T20:14:47.196Z,8.52
2023-06-21T20:17:14.270Z,5.97
2023-06-21T20:19:41.181Z,6.60
2023-06-21T20:22:08.227Z,6.13
2023-06-21T20:24:35.406Z,6.28
2023-06-21T20:27:03.433Z,6.28
2023-06-21T20:29:30.467Z,6.32
2023-06-21T20:31:57.816Z,6.38
2023-06-21T20:34:24.811Z,7.50
2023-06-21T20:36:51.805Z,8.48
2023-06-21T20:39:19.147Z,8.50
2023-06-21T20:41:47.644Z,7.00
2023-06-21T20:44:16.057Z,6.68
2023-06-21T20:46:44.166Z,6.03
2023-06-21T20:49:11.221Z,6.30
2023-06-21T20:51:38.545Z,5.85
2023-06-21T20:54:12.748Z,6.50
2023-06-21T20:56:40.434Z,8.45
2023-06-21T20:59:07.518Z,8.80
2023-06-21T21:01:40.399Z,7.18
2023-06-21T21:04:09.696Z,7.28
2023-06-21T21:06:37.184Z,5.45
2023-06-21T21:09:06.034Z,5.97
2023-06-21T21:11:32.808Z,5.80
2023-06-21T21:14:02.844Z,9.90
2023-06-21T21:16:29.985Z,6.03
2023-06-21T21:18:56.810Z,5.72
2023-06-21T21:21:24.029Z,7.25
2023-06-21T21:23:52.095Z,5.97
2023-06-21T21:26:18.968Z,6.97
2023-06-21T21:28:45.962Z,5.30
2023-06-21T21:31:13.124Z,6.07
2023-06-21T21:33:39.965Z,5.47
2023-06-21T21:36:07.154Z,6.03
2023-06-21T21:38:34.569Z,5.00
2023-06-21T21:41:01.435Z,5.22
2023-06-21T21:43:28.948Z,5.50
2023-06-21T21:45:55.784Z,5.90
2023-06-21T21:48:22.788Z,6.65
2023-06-21T21:50:49.543Z,7.45
2023-06-21T21:53:16.860Z,9.23
2023-06-21T21:55:44.810Z,5.50
2023-06-21T21:58:12.488Z,8.10
2023-06-21T22:00:39.814Z,6.75
2023-06-21T22:03:07.075Z,5.30
2023-06-21T22:05:34.280Z,5.27
2023-06-21T22:08:01.337Z,6.43
2023-06-21T22:10:38.734Z,5.22
2023-06-21T22:13:10.998Z,5.47
2023-06-21T22:15:51.982Z,7.00
2023-06-21T22:18:27.068Z,6.68
2023-06-21T22:20:58.345Z,6.47
2023-06-21T22:23:33.717Z,5.20
2023-06-21T22:26:02.611Z,4.75
2023-06-21T22:28:30.041Z,6.00
2023-06-21T22:30:58.172Z,5.65
2023-06-21T22:33:25.963Z,6.25
2023-06-21T22:35:53.045Z,4.67
2023-06-21T22:38:20.293Z,5.55
2023-06-21T22:40:48.616Z,4.80
2023-06-21T22:43:18.122Z,7.15
2023-06-21T22:45:45.537Z,5.57
2023-06-21T22:48:14.596Z,5.55
2023-06-21T22:50:44.220Z,5.78
2023-06-21T22:53:11.828Z,5.13
2023-06-21T22:55:38.603Z,6.88
2023-06-21T22:58:06.041Z,6.72
2023-06-21T23:00:33.124Z,6.80
2023-06-21T23:03:00.309Z,5.83
2023-06-21T23:05:28.590Z,5.72
2023-06-21T23:07:55.647Z,4.50
2023-06-21T23:10:22.664Z,5.50
2023-06-21T23:12:50.907Z,6.38
2023-06-21T23:15:19.653Z,4.43
2023-06-21T23:17:47.138Z,5.85
2023-06-21T23:20:14.626Z,4.50
2023-06-21T23:22:43.258Z,5.07
2023-06-21T23:25:13.718Z,6.23
2023-06-21T23:27:43.667Z,4.97
2023-06-21T23:30:35.380Z,4.90
2023-06-21T23:33:04.281Z,7.35
2023-06-21T23:35:38.469Z,5.47
2023-06-21T23:38:06.973Z,4.80
2023-06-21T23:40:36.979Z,6.27
2023-06-21T23:43:04.411Z,4.83
2023-06-21T23:45:31.493Z,5.53
2023-06-21T23:47:58.578Z,5.07
2023-06-21T23:50:25.535Z,5.37
2023-06-21T23:52:52.464Z,6.40
2023-06-21T23:55:19.335Z,6.97
2023-06-21T23:57:46.607Z,5.82
